Terminal Aerodrome Forecast
Issued by NWS

Home | Current Version | Previous Version | Text Only | Print | Product List | Glossary On
Versions: 1 2 3 4 5 6 7 8 9 10 11 12 13 14 15 16 17
539
FTUS45 KRIW 231120
TAFBPI
TAF
KBPI 231120Z 2312/2412 34007KT 4SM -SN SCT010 OVC022
      TEMPO 2312/2314 2SM -SN BKN009
     FM231800 33014G24KT P6SM VCSH SCT024 BKN040
     FM240100 34011KT P6SM SCT040 BKN080
     FM240500 35008KT P6SM SCT080=

USA.gov is the U.S. government's official web portal to all federal, state and local government web resources and services.